sensor_id;sensor_type;location;lat;lon;timestamp;P1;durP1;ratioP1;P2;durP2;ratioP2
22334;SDS011;11335;43.848;25.958;2022-07-29T00:02:38;17.83;;;13.07;;
22334;SDS011;11335;43.848;25.958;2022-07-29T00:05:24;25.27;;;14.20;;
22334;SDS011;11335;43.848;25.958;2022-07-29T00:08:10;21.63;;;13.63;;
22334;SDS011;11335;43.848;25.958;2022-07-29T00:10:56;21.98;;;13.40;;
22334;SDS011;11335;43.848;25.958;2022-07-29T00:13:41;21.27;;;13.32;;
22334;SDS011;11335;43.848;25.958;2022-07-29T00:16:27;21.77;;;12.65;;
22334;SDS011;11335;43.848;25.958;2022-07-29T00:19:13;17.77;;;12.95;;
22334;SDS011;11335;43.848;25.958;2022-07-29T00:21:59;17.20;;;12.05;;
22334;SDS011;11335;43.848;25.958;2022-07-29T00:24:46;16.30;;;11.98;;
22334;SDS011;11335;43.848;25.958;2022-07-29T00:27:34;16.60;;;10.57;;
22334;SDS011;11335;43.848;25.958;2022-07-29T00:30:22;11.55;;;9.73;;
22334;SDS011;11335;43.848;25.958;2022-07-29T00:33:08;13.35;;;8.15;;
22334;SDS011;11335;43.848;25.958;2022-07-29T00:35:55;8.90;;;7.38;;
22334;SDS011;11335;43.848;25.958;2022-07-29T00:38:40;10.32;;;7.70;;
22334;SDS011;11335;43.848;25.958;2022-07-29T00:41:29;11.35;;;7.07;;
22334;SDS011;11335;43.848;25.958;2022-07-29T00:44:15;8.13;;;6.68;;
22334;SDS011;11335;43.848;25.958;2022-07-29T00:47:01;11.82;;;6.95;;
22334;SDS011;11335;43.848;25.958;2022-07-29T00:49:46;10.82;;;6.78;;
22334;SDS011;11335;43.848;25.958;2022-07-29T00:52:33;7.97;;;6.40;;
22334;SDS011;11335;43.848;25.958;2022-07-29T00:55:20;8.55;;;6.82;;
22334;SDS011;11335;43.848;25.958;2022-07-29T00:58:06;8.25;;;6.88;;
22334;SDS011;11335;43.848;25.958;2022-07-29T01:00:52;9.40;;;6.47;;
22334;SDS011;11335;43.848;25.958;2022-07-29T01:03:38;10.88;;;6.30;;
22334;SDS011;11335;43.848;25.958;2022-07-29T01:06:24;9.65;;;6.95;;
22334;SDS011;11335;43.848;25.958;2022-07-29T01:09:10;10.38;;;6.53;;
22334;SDS011;11335;43.848;25.958;2022-07-29T01:11:56;8.48;;;6.55;;
22334;SDS011;11335;43.848;25.958;2022-07-29T01:14:42;10.63;;;6.57;;
22334;SDS011;11335;43.848;25.958;2022-07-29T01:17:32;10.43;;;6.50;;
22334;SDS011;11335;43.848;25.958;2022-07-29T01:30:12;8.95;;;8.05;;
22334;SDS011;11335;43.848;25.958;2022-07-29T01:32:59;14.25;;;8.70;;
22334;SDS011;11335;43.848;25.958;2022-07-29T01:35:47;12.80;;;8.57;;
22334;SDS011;11335;43.848;25.958;2022-07-29T01:38:33;11.07;;;8.70;;
22334;SDS011;11335;43.848;25.958;2022-07-29T01:41:21;16.85;;;9.43;;
22334;SDS011;11335;43.848;25.958;2022-07-29T01:44:18;22.20;;;9.48;;
22334;SDS011;11335;43.848;25.958;2022-07-29T01:47:16;14.65;;;9.45;;
22334;SDS011;11335;43.848;25.958;2022-07-29T01:50:06;14.98;;;9.00;;
22334;SDS011;11335;43.848;25.958;2022-07-29T01:52:59;13.80;;;9.43;;
22334;SDS011;11335;43.848;25.958;2022-07-29T01:55:48;15.68;;;8.75;;
22334;SDS011;11335;43.848;25.958;2022-07-29T01:58:35;19.65;;;9.75;;
22334;SDS011;11335;43.848;25.958;2022-07-29T02:01:25;16.23;;;9.38;;
22334;SDS011;11335;43.848;25.958;2022-07-29T02:04:12;17.95;;;9.10;;
22334;SDS011;11335;43.848;25.958;2022-07-29T02:07:01;11.88;;;8.68;;
22334;SDS011;11335;43.848;25.958;2022-07-29T02:09:50;14.57;;;8.60;;
22334;SDS011;11335;43.848;25.958;2022-07-29T02:12:38;11.30;;;7.97;;
22334;SDS011;11335;43.848;25.958;2022-07-29T02:15:26;11.98;;;8.10;;
22334;SDS011;11335;43.848;25.958;2022-07-29T02:18:15;14.10;;;8.45;;
22334;SDS011;11335;43.848;25.958;2022-07-29T02:21:03;14.00;;;8.02;;
22334;SDS011;11335;43.848;25.958;2022-07-29T02:23:49;12.40;;;7.93;;
22334;SDS011;11335;43.848;25.958;2022-07-29T02:26:38;18.85;;;8.88;;
22334;SDS011;11335;43.848;25.958;2022-07-29T02:29:26;12.43;;;8.75;;
22334;SDS011;11335;43.848;25.958;2022-07-29T02:32:15;15.13;;;8.55;;
22334;SDS011;11335;43.848;25.958;2022-07-29T02:35:02;17.10;;;8.82;;
22334;SDS011;11335;43.848;25.958;2022-07-29T02:37:49;13.95;;;8.27;;
22334;SDS011;11335;43.848;25.958;2022-07-29T02:40:55;16.05;;;9.07;;
22334;SDS011;11335;43.848;25.958;2022-07-29T02:43:43;22.80;;;8.90;;
22334;SDS011;11335;43.848;25.958;2022-07-29T02:46:33;15.15;;;8.32;;
22334;SDS011;11335;43.848;25.958;2022-07-29T02:52:19;20.33;;;9.60;;
22334;SDS011;11335;43.848;25.958;2022-07-29T02:55:15;15.55;;;9.75;;
22334;SDS011;11335;43.848;25.958;2022-07-29T03:01:18;19.60;;;10.55;;
22334;SDS011;11335;43.848;25.958;2022-07-29T03:04:06;17.48;;;11.60;;
22334;SDS011;11335;43.848;25.958;2022-07-29T03:06:55;19.27;;;11.30;;
22334;SDS011;11335;43.848;25.958;2022-07-29T03:09:44;15.43;;;11.50;;
22334;SDS011;11335;43.848;25.958;2022-07-29T03:12:31;16.38;;;12.48;;
22334;SDS011;11335;43.848;25.958;2022-07-29T03:15:18;15.70;;;11.82;;
22334;SDS011;11335;43.848;25.958;2022-07-29T03:18:05;21.15;;;11.00;;
22334;SDS011;11335;43.848;25.958;2022-07-29T03:20:51;13.75;;;11.23;;
22334;SDS011;11335;43.848;25.958;2022-07-29T03:23:38;17.42;;;11.75;;
22334;SDS011;11335;43.848;25.958;2022-07-29T03:26:30;17.00;;;11.57;;
22334;SDS011;11335;43.848;25.958;2022-07-29T03:29:16;15.10;;;11.38;;
22334;SDS011;11335;43.848;25.958;2022-07-29T03:32:02;20.50;;;11.43;;
22334;SDS011;11335;43.848;25.958;2022-07-29T03:34:50;13.07;;;10.18;;
22334;SDS011;11335;43.848;25.958;2022-07-29T03:37:35;16.38;;;10.38;;
22334;SDS011;11335;43.848;25.958;2022-07-29T03:40:22;15.80;;;10.27;;
22334;SDS011;11335;43.848;25.958;2022-07-29T03:43:11;15.88;;;9.70;;
22334;SDS011;11335;43.848;25.958;2022-07-29T03:46:00;16.15;;;9.85;;
22334;SDS011;11335;43.848;25.958;2022-07-29T03:48:50;15.93;;;9.63;;
22334;SDS011;11335;43.848;25.958;2022-07-29T03:51:41;14.98;;;8.68;;
22334;SDS011;11335;43.848;25.958;2022-07-29T03:54:27;17.83;;;9.65;;
22334;SDS011;11335;43.848;25.958;2022-07-29T03:57:13;18.33;;;9.63;;
22334;SDS011;11335;43.848;25.958;2022-07-29T04:00:02;13.30;;;8.90;;
22334;SDS011;11335;43.848;25.958;2022-07-29T04:02:50;14.98;;;8.45;;
22334;SDS011;11335;43.848;25.958;2022-07-29T04:05:36;15.13;;;8.48;;
22334;SDS011;11335;43.848;25.958;2022-07-29T04:08:22;16.98;;;8.13;;
22334;SDS011;11335;43.848;25.958;2022-07-29T04:11:07;14.57;;;7.90;;
22334;SDS011;11335;43.848;25.958;2022-07-29T04:13:53;11.15;;;7.65;;
22334;SDS011;11335;43.848;25.958;2022-07-29T04:16:39;10.75;;;7.30;;
22334;SDS011;11335;43.848;25.958;2022-07-29T04:19:25;17.02;;;8.05;;
22334;SDS011;11335;43.848;25.958;2022-07-29T04:22:11;15.15;;;8.07;;
22334;SDS011;11335;43.848;25.958;2022-07-29T04:24:56;11.82;;;8.30;;
22334;SDS011;11335;43.848;25.958;2022-07-29T04:27:42;14.38;;;8.27;;
22334;SDS011;11335;43.848;25.958;2022-07-29T04:30:45;16.50;;;8.32;;
22334;SDS011;11335;43.848;25.958;2022-07-29T04:33:31;17.77;;;8.40;;
22334;SDS011;11335;43.848;25.958;2022-07-29T04:36:16;14.73;;;8.80;;
22334;SDS011;11335;43.848;25.958;2022-07-29T04:39:02;15.32;;;8.45;;
22334;SDS011;11335;43.848;25.958;2022-07-29T04:41:49;17.33;;;8.93;;
22334;SDS011;11335;43.848;25.958;2022-07-29T04:44:35;19.05;;;8.85;;
22334;SDS011;11335;43.848;25.958;2022-07-29T04:47:21;13.15;;;8.65;;
22334;SDS011;11335;43.848;25.958;2022-07-29T04:50:07;14.27;;;8.77;;
22334;SDS011;11335;43.848;25.958;2022-07-29T04:52:54;19.58;;;9.25;;
22334;SDS011;11335;43.848;25.958;2022-07-29T04:55:40;14.93;;;8.20;;
22334;SDS011;11335;43.848;25.958;2022-07-29T04:58:25;14.88;;;8.02;;
22334;SDS011;11335;43.848;25.958;2022-07-29T05:01:11;14.20;;;7.65;;
22334;SDS011;11335;43.848;25.958;2022-07-29T05:03:57;16.27;;;7.85;;
22334;SDS011;11335;43.848;25.958;2022-07-29T05:06:43;12.57;;;7.55;;
22334;SDS011;11335;43.848;25.958;2022-07-29T05:09:28;14.88;;;7.20;;
22334;SDS011;11335;43.848;25.958;2022-07-29T05:12:14;16.15;;;7.30;;
22334;SDS011;11335;43.848;25.958;2022-07-29T05:15:00;15.27;;;7.47;;
22334;SDS011;11335;43.848;25.958;2022-07-29T05:17:46;15.98;;;7.22;;
22334;SDS011;11335;43.848;25.958;2022-07-29T05:20:31;21.83;;;6.72;;
22334;SDS011;11335;43.848;25.958;2022-07-29T05:23:19;15.88;;;7.20;;
22334;SDS011;11335;43.848;25.958;2022-07-29T05:26:05;12.80;;;6.32;;
22334;SDS011;11335;43.848;25.958;2022-07-29T05:28:50;12.88;;;7.07;;
22334;SDS011;11335;43.848;25.958;2022-07-29T05:31:36;12.10;;;6.50;;
22334;SDS011;11335;43.848;25.958;2022-07-29T05:34:22;14.15;;;7.35;;
22334;SDS011;11335;43.848;25.958;2022-07-29T05:37:08;13.15;;;7.55;;
22334;SDS011;11335;43.848;25.958;2022-07-29T05:39:53;13.30;;;7.13;;
22334;SDS011;11335;43.848;25.958;2022-07-29T05:42:39;11.70;;;7.30;;
22334;SDS011;11335;43.848;25.958;2022-07-29T05:45:25;17.30;;;7.00;;
22334;SDS011;11335;43.848;25.958;2022-07-29T05:48:11;11.75;;;7.10;;
22334;SDS011;11335;43.848;25.958;2022-07-29T05:50:57;9.75;;;6.93;;
22334;SDS011;11335;43.848;25.958;2022-07-29T05:53:43;14.75;;;7.13;;
22334;SDS011;11335;43.848;25.958;2022-07-29T05:56:30;15.40;;;7.18;;
22334;SDS011;11335;43.848;25.958;2022-07-29T05:59:15;15.20;;;7.43;;
22334;SDS011;11335;43.848;25.958;2022-07-29T06:02:01;12.70;;;7.78;;
22334;SDS011;11335;43.848;25.958;2022-07-29T06:04:47;14.98;;;7.45;;
22334;SDS011;11335;43.848;25.958;2022-07-29T06:07:33;11.48;;;8.00;;
22334;SDS011;11335;43.848;25.958;2022-07-29T06:10:19;16.38;;;7.05;;
22334;SDS011;11335;43.848;25.958;2022-07-29T06:13:05;13.75;;;6.60;;
22334;SDS011;11335;43.848;25.958;2022-07-29T06:15:51;9.90;;;4.70;;
22334;SDS011;11335;43.848;25.958;2022-07-29T06:18:37;7.82;;;4.70;;
22334;SDS011;11335;43.848;25.958;2022-07-29T06:21:22;12.20;;;4.90;;
22334;SDS011;11335;43.848;25.958;2022-07-29T06:24:09;9.50;;;5.30;;
22334;SDS011;11335;43.848;25.958;2022-07-29T06:26:56;7.63;;;5.18;;
22334;SDS011;11335;43.848;25.958;2022-07-29T06:29:41;11.30;;;5.50;;
22334;SDS011;11335;43.848;25.958;2022-07-29T06:32:27;11.95;;;5.80;;
22334;SDS011;11335;43.848;25.958;2022-07-29T06:35:13;9.10;;;5.57;;
22334;SDS011;11335;43.848;25.958;2022-07-29T06:37:59;9.20;;;5.10;;
22334;SDS011;11335;43.848;25.958;2022-07-29T06:40:45;10.05;;;5.47;;
22334;SDS011;11335;43.848;25.958;2022-07-29T06:43:55;8.73;;;4.95;;
22334;SDS011;11335;43.848;25.958;2022-07-29T06:46:41;14.75;;;5.55;;
22334;SDS011;11335;43.848;25.958;2022-07-29T06:49:27;8.60;;;5.28;;
22334;SDS011;11335;43.848;25.958;2022-07-29T06:52:13;9.13;;;4.88;;
22334;SDS011;11335;43.848;25.958;2022-07-29T06:54:59;6.97;;;4.45;;
22334;SDS011;11335;43.848;25.958;2022-07-29T06:57:45;8.70;;;4.22;;
22334;SDS011;11335;43.848;25.958;2022-07-29T07:00:31;12.00;;;4.65;;
22334;SDS011;11335;43.848;25.958;2022-07-29T07:03:17;11.73;;;3.90;;
22334;SDS011;11335;43.848;25.958;2022-07-29T07:06:03;6.53;;;3.72;;
22334;SDS011;11335;43.848;25.958;2022-07-29T07:08:49;7.68;;;3.72;;
22334;SDS011;11335;43.848;25.958;2022-07-29T07:11:35;11.98;;;3.80;;
22334;SDS011;11335;43.848;25.958;2022-07-29T07:14:21;8.32;;;3.92;;
22334;SDS011;11335;43.848;25.958;2022-07-29T07:17:06;7.95;;;4.05;;
22334;SDS011;11335;43.848;25.958;2022-07-29T07:19:53;4.10;;;3.70;;
22334;SDS011;11335;43.848;25.958;2022-07-29T07:22:38;7.38;;;4.18;;
22334;SDS011;11335;43.848;25.958;2022-07-29T07:25:24;7.78;;;3.63;;
22334;SDS011;11335;43.848;25.958;2022-07-29T07:28:10;13.73;;;10.55;;
22334;SDS011;11335;43.848;25.958;2022-07-29T07:30:56;4.05;;;3.35;;
22334;SDS011;11335;43.848;25.958;2022-07-29T07:33:42;6.47;;;3.78;;
22334;SDS011;11335;43.848;25.958;2022-07-29T07:36:28;5.50;;;3.42;;
22334;SDS011;11335;43.848;25.958;2022-07-29T07:39:13;6.15;;;3.40;;
22334;SDS011;11335;43.848;25.958;2022-07-29T07:41:59;9.30;;;3.88;;
22334;SDS011;11335;43.848;25.958;2022-07-29T07:44:45;4.43;;;3.10;;
22334;SDS011;11335;43.848;25.958;2022-07-29T07:47:31;4.78;;;3.17;;
22334;SDS011;11335;43.848;25.958;2022-07-29T07:50:17;4.88;;;3.05;;
22334;SDS011;11335;43.848;25.958;2022-07-29T07:53:03;8.25;;;3.20;;
22334;SDS011;11335;43.848;25.958;2022-07-29T07:55:49;4.63;;;3.35;;
22334;SDS011;11335;43.848;25.958;2022-07-29T07:58:35;7.70;;;3.20;;
22334;SDS011;11335;43.848;25.958;2022-07-29T08:01:21;3.85;;;3.03;;
22334;SDS011;11335;43.848;25.958;2022-07-29T08:04:08;9.90;;;4.10;;
22334;SDS011;11335;43.848;25.958;2022-07-29T08:06:55;4.13;;;3.13;;
22334;SDS011;11335;43.848;25.958;2022-07-29T08:09:42;9.93;;;3.10;;
22334;SDS011;11335;43.848;25.958;2022-07-29T08:12:33;4.13;;;3.08;;
22334;SDS011;11335;43.848;25.958;2022-07-29T08:15:19;6.45;;;3.38;;
22334;SDS011;11335;43.848;25.958;2022-07-29T08:18:05;6.13;;;3.33;;
22334;SDS011;11335;43.848;25.958;2022-07-29T08:20:51;5.28;;;3.08;;
22334;SDS011;11335;43.848;25.958;2022-07-29T08:23:37;3.50;;;3.20;;
22334;SDS011;11335;43.848;25.958;2022-07-29T08:26:31;5.95;;;3.42;;
22334;SDS011;11335;43.848;25.958;2022-07-29T08:29:16;3.85;;;3.45;;
22334;SDS011;11335;43.848;25.958;2022-07-29T08:32:03;5.35;;;3.30;;
22334;SDS011;11335;43.848;25.958;2022-07-29T08:34:54;3.80;;;3.50;;
22334;SDS011;11335;43.848;25.958;2022-07-29T08:37:40;6.35;;;3.40;;
22334;SDS011;11335;43.848;25.958;2022-07-29T08:40:27;4.82;;;3.60;;
22334;SDS011;11335;43.848;25.958;2022-07-29T08:43:13;10.52;;;3.50;;
22334;SDS011;11335;43.848;25.958;2022-07-29T08:45:59;3.63;;;3.05;;
22334;SDS011;11335;43.848;25.958;2022-07-29T08:48:46;8.02;;;3.17;;
22334;SDS011;11335;43.848;25.958;2022-07-29T08:51:32;7.45;;;3.92;;
22334;SDS011;11335;43.848;25.958;2022-07-29T08:54:20;6.30;;;3.50;;
22334;SDS011;11335;43.848;25.958;2022-07-29T08:57:07;5.57;;;3.13;;
22334;SDS011;11335;43.848;25.958;2022-07-29T08:59:53;6.25;;;3.40;;
22334;SDS011;11335;43.848;25.958;2022-07-29T09:02:40;4.53;;;3.60;;
22334;SDS011;11335;43.848;25.958;2022-07-29T09:05:30;3.80;;;3.40;;
22334;SDS011;11335;43.848;25.958;2022-07-29T09:08:17;5.80;;;3.30;;
22334;SDS011;11335;43.848;25.958;2022-07-29T09:11:03;5.60;;;3.45;;
22334;SDS011;11335;43.848;25.958;2022-07-29T09:13:49;4.07;;;3.47;;
22334;SDS011;11335;43.848;25.958;2022-07-29T09:19:32;4.47;;;3.30;;
22334;SDS011;11335;43.848;25.958;2022-07-29T09:22:31;8.55;;;3.30;;
22334;SDS011;11335;43.848;25.958;2022-07-29T09:25:31;7.82;;;3.80;;
22334;SDS011;11335;43.848;25.958;2022-07-29T09:28:18;8.13;;;4.82;;
22334;SDS011;11335;43.848;25.958;2022-07-29T09:31:06;7.38;;;4.97;;
22334;SDS011;11335;43.848;25.958;2022-07-29T09:33:53;4.47;;;3.65;;
22334;SDS011;11335;43.848;25.958;2022-07-29T09:36:46;4.55;;;3.10;;
22334;SDS011;11335;43.848;25.958;2022-07-29T09:39:38;3.88;;;3.28;;
22334;SDS011;11335;43.848;25.958;2022-07-29T09:42:30;8.50;;;3.50;;
22334;SDS011;11335;43.848;25.958;2022-07-29T09:48:23;6.28;;;3.78;;
22334;SDS011;11335;43.848;25.958;2022-07-29T09:51:19;5.28;;;3.28;;
22334;SDS011;11335;43.848;25.958;2022-07-29T09:54:24;6.55;;;3.67;;
22334;SDS011;11335;43.848;25.958;2022-07-29T09:57:23;4.90;;;3.33;;
22334;SDS011;11335;43.848;25.958;2022-07-29T10:00:13;4.95;;;3.50;;
22334;SDS011;11335;43.848;25.958;2022-07-29T10:03:04;5.07;;;3.58;;
22334;SDS011;11335;43.848;25.958;2022-07-29T10:09:08;4.07;;;3.50;;
22334;SDS011;11335;43.848;25.958;2022-07-29T10:12:09;5.50;;;3.20;;
22334;SDS011;11335;43.848;25.958;2022-07-29T10:14:58;10.57;;;6.18;;
22334;SDS011;11335;43.848;25.958;2022-07-29T10:17:47;6.95;;;3.50;;
22334;SDS011;11335;43.848;25.958;2022-07-29T10:20:35;4.40;;;3.97;;
22334;SDS011;11335;43.848;25.958;2022-07-29T10:23:23;8.73;;;5.47;;
22334;SDS011;11335;43.848;25.958;2022-07-29T10:26:09;8.00;;;5.50;;
22334;SDS011;11335;43.848;25.958;2022-07-29T10:28:55;8.68;;;3.70;;
22334;SDS011;11335;43.848;25.958;2022-07-29T10:31:48;5.57;;;3.70;;
22334;SDS011;11335;43.848;25.958;2022-07-29T10:34:51;5.68;;;3.50;;
22334;SDS011;11335;43.848;25.958;2022-07-29T10:40:49;7.85;;;3.80;;
22334;SDS011;11335;43.848;25.958;2022-07-29T10:44:12;4.75;;;3.35;;
22334;SDS011;11335;43.848;25.958;2022-07-29T10:47:03;4.32;;;3.65;;
22334;SDS011;11335;43.848;25.958;2022-07-29T10:49:56;4.47;;;3.15;;
22334;SDS011;11335;43.848;25.958;2022-07-29T10:55:38;4.55;;;3.60;;
22334;SDS011;11335;43.848;25.958;2022-07-29T10:58:33;6.13;;;3.47;;
22334;SDS011;11335;43.848;25.958;2022-07-29T11:01:29;5.55;;;3.33;;
22334;SDS011;11335;43.848;25.958;2022-07-29T11:04:16;3.88;;;3.47;;
22334;SDS011;11335;43.848;25.958;2022-07-29T11:07:31;6.50;;;5.20;;
22334;SDS011;11335;43.848;25.958;2022-07-29T11:10:19;8.18;;;4.28;;
22334;SDS011;11335;43.848;25.958;2022-07-29T11:13:06;5.53;;;3.50;;
22334;SDS011;11335;43.848;25.958;2022-07-29T11:15:56;5.97;;;3.38;;
22334;SDS011;11335;43.848;25.958;2022-07-29T11:21:56;7.63;;;3.90;;
22334;SDS011;11335;43.848;25.958;2022-07-29T11:24:42;4.97;;;3.80;;
22334;SDS011;11335;43.848;25.958;2022-07-29T11:27:31;5.95;;;3.97;;
22334;SDS011;11335;43.848;25.958;2022-07-29T11:30:46;4.28;;;3.42;;
22334;SDS011;11335;43.848;25.958;2022-07-29T11:33:34;3.70;;;3.35;;
22334;SDS011;11335;43.848;25.958;2022-07-29T11:36:20;4.90;;;3.70;;
22334;SDS011;11335;43.848;25.958;2022-07-29T11:39:25;5.90;;;3.80;;
22334;SDS011;11335;43.848;25.958;2022-07-29T11:45:08;4.10;;;3.80;;
22334;SDS011;11335;43.848;25.958;2022-07-29T11:48:02;8.07;;;4.22;;
22334;SDS011;11335;43.848;25.958;2022-07-29T11:50:50;8.18;;;4.03;;
22334;SDS011;11335;43.848;25.958;2022-07-29T11:53:38;7.82;;;3.95;;
22334;SDS011;11335;43.848;25.958;2022-07-29T11:56:24;8.70;;;4.05;;
22334;SDS011;11335;43.848;25.958;2022-07-29T11:59:16;5.07;;;3.72;;
22334;SDS011;11335;43.848;25.958;2022-07-29T12:02:02;5.28;;;3.95;;
22334;SDS011;11335;43.848;25.958;2022-07-29T12:04:52;5.47;;;3.72;;
22334;SDS011;11335;43.848;25.958;2022-07-29T12:07:39;7.45;;;3.63;;
22334;SDS011;11335;43.848;25.958;2022-07-29T12:10:29;7.43;;;4.07;;
22334;SDS011;11335;43.848;25.958;2022-07-29T12:13:16;5.63;;;4.10;;
22334;SDS011;11335;43.848;25.958;2022-07-29T12:16:06;10.50;;;6.88;;
22334;SDS011;11335;43.848;25.958;2022-07-29T12:18:55;5.35;;;4.00;;
22334;SDS011;11335;43.848;25.958;2022-07-29T12:21:49;4.72;;;3.60;;
22334;SDS011;11335;43.848;25.958;2022-07-29T12:24:43;7.07;;;3.75;;
22334;SDS011;11335;43.848;25.958;2022-07-29T12:27:29;5.78;;;3.58;;
22334;SDS011;11335;43.848;25.958;2022-07-29T12:30:16;8.95;;;3.90;;
22334;SDS011;11335;43.848;25.958;2022-07-29T12:33:02;4.18;;;3.78;;
22334;SDS011;11335;43.848;25.958;2022-07-29T12:36:05;4.00;;;3.60;;
22334;SDS011;11335;43.848;25.958;2022-07-29T12:38:51;6.57;;;3.92;;
22334;SDS011;11335;43.848;25.958;2022-07-29T12:41:37;6.68;;;4.45;;
22334;SDS011;11335;43.848;25.958;2022-07-29T12:44:24;5.70;;;4.03;;
22334;SDS011;11335;43.848;25.958;2022-07-29T12:47:11;9.20;;;3.90;;
22334;SDS011;11335;43.848;25.958;2022-07-29T12:50:10;5.28;;;3.92;;
22334;SDS011;11335;43.848;25.958;2022-07-29T12:53:11;7.18;;;3.60;;
22334;SDS011;11335;43.848;25.958;2022-07-29T12:56:00;6.25;;;3.60;;
22334;SDS011;11335;43.848;25.958;2022-07-29T12:58:49;4.82;;;3.78;;
22334;SDS011;11335;43.848;25.958;2022-07-29T13:01:36;4.80;;;3.95;;
22334;SDS011;11335;43.848;25.958;2022-07-29T13:04:29;4.75;;;3.83;;
22334;SDS011;11335;43.848;25.958;2022-07-29T13:07:23;6.57;;;3.90;;
22334;SDS011;11335;43.848;25.958;2022-07-29T13:10:15;4.13;;;3.70;;
22334;SDS011;11335;43.848;25.958;2022-07-29T13:13:06;6.53;;;3.88;;
22334;SDS011;11335;43.848;25.958;2022-07-29T13:16:15;8.43;;;4.03;;
22334;SDS011;11335;43.848;25.958;2022-07-29T13:19:04;4.15;;;3.70;;
22334;SDS011;11335;43.848;25.958;2022-07-29T13:21:54;4.18;;;3.78;;
22334;SDS011;11335;43.848;25.958;2022-07-29T13:24:53;4.43;;;3.70;;
22334;SDS011;11335;43.848;25.958;2022-07-29T13:27:43;4.53;;;3.88;;
22334;SDS011;11335;43.848;25.958;2022-07-29T13:30:31;5.68;;;3.95;;
22334;SDS011;11335;43.848;25.958;2022-07-29T13:33:16;4.93;;;3.92;;
22334;SDS011;11335;43.848;25.958;2022-07-29T13:36:02;5.15;;;3.60;;
22334;SDS011;11335;43.848;25.958;2022-07-29T13:38:48;5.60;;;3.70;;
22334;SDS011;11335;43.848;25.958;2022-07-29T13:41:34;7.10;;;3.83;;
22334;SDS011;11335;43.848;25.958;2022-07-29T13:44:19;6.85;;;3.78;;
22334;SDS011;11335;43.848;25.958;2022-07-29T13:47:06;3.85;;;3.55;;
22334;SDS011;11335;43.848;25.958;2022-07-29T13:49:53;5.93;;;3.60;;
22334;SDS011;11335;43.848;25.958;2022-07-29T13:52:38;4.13;;;3.70;;
22334;SDS011;11335;43.848;25.958;2022-07-29T13:55:24;9.68;;;4.30;;
22334;SDS011;11335;43.848;25.958;2022-07-29T13:58:10;4.60;;;3.95;;
22334;SDS011;11335;43.848;25.958;2022-07-29T14:00:56;4.00;;;3.60;;
22334;SDS011;11335;43.848;25.958;2022-07-29T14:03:42;6.75;;;3.55;;
22334;SDS011;11335;43.848;25.958;2022-07-29T14:06:28;6.25;;;3.55;;
22334;SDS011;11335;43.848;25.958;2022-07-29T14:09:14;6.50;;;3.70;;
22334;SDS011;11335;43.848;25.958;2022-07-29T14:12:02;5.15;;;3.60;;
22334;SDS011;11335;43.848;25.958;2022-07-29T14:14:48;6.00;;;3.65;;
22334;SDS011;11335;43.848;25.958;2022-07-29T14:17:34;7.88;;;6.22;;
22334;SDS011;11335;43.848;25.958;2022-07-29T14:20:20;8.15;;;4.20;;
22334;SDS011;11335;43.848;25.958;2022-07-29T14:23:06;5.05;;;3.75;;
22334;SDS011;11335;43.848;25.958;2022-07-29T14:25:52;5.07;;;4.05;;
22334;SDS011;11335;43.848;25.958;2022-07-29T14:28:37;4.53;;;4.10;;
22334;SDS011;11335;43.848;25.958;2022-07-29T14:31:23;4.57;;;3.75;;
22334;SDS011;11335;43.848;25.958;2022-07-29T14:34:10;5.70;;;4.30;;
22334;SDS011;11335;43.848;25.958;2022-07-29T14:36:56;6.43;;;4.40;;
22334;SDS011;11335;43.848;25.958;2022-07-29T14:39:41;4.85;;;4.10;;
22334;SDS011;11335;43.848;25.958;2022-07-29T14:42:27;6.03;;;4.85;;
22334;SDS011;11335;43.848;25.958;2022-07-29T14:45:13;5.88;;;4.88;;
22334;SDS011;11335;43.848;25.958;2022-07-29T14:47:59;8.07;;;5.63;;
22334;SDS011;11335;43.848;25.958;2022-07-29T14:50:45;9.15;;;5.40;;
22334;SDS011;11335;43.848;25.958;2022-07-29T14:53:31;7.25;;;5.43;;
22334;SDS011;11335;43.848;25.958;2022-07-29T14:56:17;6.53;;;5.68;;
22334;SDS011;11335;43.848;25.958;2022-07-29T14:59:03;9.02;;;6.13;;
22334;SDS011;11335;43.848;25.958;2022-07-29T15:01:49;8.52;;;5.10;;
22334;SDS011;11335;43.848;25.958;2022-07-29T15:04:35;7.00;;;5.05;;
22334;SDS011;11335;43.848;25.958;2022-07-29T15:07:20;8.70;;;5.30;;
22334;SDS011;11335;43.848;25.958;2022-07-29T15:10:06;7.68;;;4.70;;
22334;SDS011;11335;43.848;25.958;2022-07-29T15:12:52;17.35;;;5.03;;
22334;SDS011;11335;43.848;25.958;2022-07-29T15:15:39;5.43;;;4.55;;
22334;SDS011;11335;43.848;25.958;2022-07-29T15:18:24;7.50;;;4.47;;
22334;SDS011;11335;43.848;25.958;2022-07-29T15:21:10;10.43;;;4.72;;
22334;SDS011;11335;43.848;25.958;2022-07-29T15:23:59;6.68;;;4.50;;
22334;SDS011;11335;43.848;25.958;2022-07-29T15:26:45;5.03;;;4.32;;
22334;SDS011;11335;43.848;25.958;2022-07-29T15:29:31;6.32;;;4.40;;
22334;SDS011;11335;43.848;25.958;2022-07-29T15:32:17;8.27;;;4.45;;
22334;SDS011;11335;43.848;25.958;2022-07-29T15:35:02;5.68;;;4.10;;
22334;SDS011;11335;43.848;25.958;2022-07-29T15:37:48;6.05;;;4.32;;
22334;SDS011;11335;43.848;25.958;2022-07-29T15:40:36;7.22;;;4.43;;
22334;SDS011;11335;43.848;25.958;2022-07-29T15:43:23;5.43;;;4.55;;
22334;SDS011;11335;43.848;25.958;2022-07-29T15:46:12;7.43;;;4.65;;
22334;SDS011;11335;43.848;25.958;2022-07-29T15:49:17;5.38;;;4.78;;
22334;SDS011;11335;43.848;25.958;2022-07-29T15:52:03;6.97;;;4.63;;
22334;SDS011;11335;43.848;25.958;2022-07-29T15:54:54;6.88;;;4.50;;
22334;SDS011;11335;43.848;25.958;2022-07-29T15:57:40;6.22;;;4.93;;
22334;SDS011;11335;43.848;25.958;2022-07-29T16:00:28;7.68;;;5.30;;
22334;SDS011;11335;43.848;25.958;2022-07-29T16:03:13;7.70;;;5.00;;
22334;SDS011;11335;43.848;25.958;2022-07-29T16:06:00;7.40;;;5.28;;
22334;SDS011;11335;43.848;25.958;2022-07-29T16:08:48;7.43;;;4.85;;
22334;SDS011;11335;43.848;25.958;2022-07-29T16:11:34;8.63;;;5.20;;
22334;SDS011;11335;43.848;25.958;2022-07-29T16:14:20;7.53;;;5.20;;
22334;SDS011;11335;43.848;25.958;2022-07-29T16:17:06;9.63;;;5.38;;
22334;SDS011;11335;43.848;25.958;2022-07-29T16:19:51;6.35;;;5.00;;
22334;SDS011;11335;43.848;25.958;2022-07-29T16:22:38;10.70;;;5.65;;
22334;SDS011;11335;43.848;25.958;2022-07-29T16:25:24;11.35;;;5.40;;
22334;SDS011;11335;43.848;25.958;2022-07-29T16:28:10;9.95;;;5.82;;
22334;SDS011;11335;43.848;25.958;2022-07-29T16:30:56;8.90;;;6.25;;
22334;SDS011;11335;43.848;25.958;2022-07-29T16:33:41;8.45;;;6.10;;
22334;SDS011;11335;43.848;25.958;2022-07-29T16:36:27;9.68;;;5.95;;
22334;SDS011;11335;43.848;25.958;2022-07-29T16:39:13;9.30;;;6.53;;
22334;SDS011;11335;43.848;25.958;2022-07-29T16:41:59;11.57;;;7.20;;
22334;SDS011;11335;43.848;25.958;2022-07-29T16:44:45;10.77;;;7.82;;
22334;SDS011;11335;43.848;25.958;2022-07-29T16:47:30;12.30;;;7.90;;
22334;SDS011;11335;43.848;25.958;2022-07-29T16:50:16;10.70;;;8.00;;
22334;SDS011;11335;43.848;25.958;2022-07-29T16:53:02;14.55;;;11.75;;
22334;SDS011;11335;43.848;25.958;2022-07-29T16:55:48;15.38;;;10.95;;
22334;SDS011;11335;43.848;25.958;2022-07-29T16:58:33;23.85;;;13.23;;
22334;SDS011;11335;43.848;25.958;2022-07-29T17:01:19;14.57;;;11.43;;
22334;SDS011;11335;43.848;25.958;2022-07-29T17:04:05;21.48;;;16.17;;
22334;SDS011;11335;43.848;25.958;2022-07-29T17:06:51;12.65;;;11.07;;
22334;SDS011;11335;43.848;25.958;2022-07-29T17:09:37;12.77;;;10.85;;